Time;durP1;ratioP1;P1;durP2;ratioP2;P2;SDS_P1;SDS_P2;PMS_P1;PMS_P2;Temp;Humidity;BMP_temperature;BMP_pressure;BME280_temperature;BME280_humidity;BME280_pressure;Samples;Min_cycle;Max_cycle;Signal;HPM_P1;HPM_P2
2022/03/09 00:02:13;;;;;;;2.67;1.42;;;;;;;3.62;52.99;102178.97;5034021;28;97826;-37
2022/03/09 00:04:38;;;;;;;2.65;1.92;;;;;;;3.62;53.49;102187.00;5033664;28;121925;-37
2022/03/09 00:07:04;;;;;;;2.30;1.63;;;;;;;3.54;53.44;102172.81;5034483;28;101677;-37
2022/03/09 00:09:29;;;;;;;3.65;2.10;;;;;;;3.60;52.99;102183.47;5033961;28;97768;-37
2022/03/09 00:11:55;;;;;;;3.53;2.42;;;;;;;3.53;52.99;102181.78;5034588;28;98049;-38
2022/03/09 00:14:20;;;;;;;4.75;2.85;;;;;;;3.46;53.44;102177.38;5034362;28;96488;-37
2022/03/09 00:16:45;;;;;;;4.90;2.28;;;;;;;3.44;53.49;102187.22;5033969;28;120835;-37
2022/03/09 00:19:11;;;;;;;3.40;2.03;;;;;;;3.50;53.49;102190.69;5034470;28;97431;-38
2022/03/09 00:21:36;;;;;;;4.13;2.15;;;;;;;3.46;53.53;102204.19;5034260;28;96492;-37
2022/03/09 00:24:02;;;;;;;4.35;2.95;;;;;;;3.39;53.40;102193.50;5033968;28;96601;-38
2022/03/09 00:26:27;;;;;;;3.95;2.03;;;;;;;3.40;52.75;102205.09;5034419;28;96641;-37
2022/03/09 00:28:53;;;;;;;2.53;1.95;;;;;;;3.36;53.33;102196.22;5034204;28;98143;-37
2022/03/09 00:31:18;;;;;;;2.40;1.90;;;;;;;3.40;53.97;102208.66;5033484;28;113668;-37
2022/03/09 00:33:43;;;;;;;2.80;1.52;;;;;;;3.37;53.63;102208.69;5033087;27;120950;-37
2022/03/09 00:36:08;;;;;;;4.82;1.80;;;;;;;3.36;53.15;102209.63;5015837;28;102079;-38
2022/03/09 00:38:34;;;;;;;4.40;1.98;;;;;;;3.27;53.86;102198.13;5034148;28;97869;-37
2022/03/09 00:41:01;;;;;;;5.43;2.50;;;;;;;3.25;53.75;102214.19;5034231;28;97409;-37
2022/03/09 00:43:27;;;;;;;1.80;1.42;;;;;;;3.25;53.54;102210.63;5032764;28;96681;-37
2022/03/09 00:45:53;;;;;;;5.93;2.78;;;;;;;3.28;52.93;102219.50;5015872;28;96843;-37
2022/03/09 00:48:18;;;;;;;4.57;2.95;;;;;;;3.27;54.21;102223.09;5033553;28;97752;-37
2022/03/09 00:50:44;;;;;;;5.55;2.35;;;;;;;3.26;54.28;102218.63;5033827;28;97272;-37
2022/03/09 00:53:09;;;;;;;2.45;2.22;;;;;;;3.22;53.89;102219.56;5015677;28;96687;-38
2022/03/09 00:55:34;;;;;;;6.03;1.92;;;;;;;3.14;53.91;102218.72;5034013;28;96814;-37
2022/03/09 00:57:59;;;;;;;3.78;2.55;;;;;;;3.18;54.04;102233.88;5033004;28;117563;-38
2022/03/09 01:00:25;;;;;;;3.53;2.38;;;;;;;3.11;54.46;102225.00;5033469;28;97877;-37
2022/03/09 01:02:50;;;;;;;3.33;2.13;;;;;;;3.07;54.92;102217.00;5032771;28;121866;-37
2022/03/09 01:05:15;;;;;;;3.30;1.88;;;;;;;3.04;54.60;102217.03;5033125;28;121453;-37
2022/03/09 01:07:42;;;;;;;2.55;1.85;;;;;;;3.02;54.83;102226.88;5033638;28;98067;-37
2022/03/09 01:10:08;;;;;;;4.05;2.05;;;;;;;3.01;54.63;102227.78;5014871;28;100932;-37
2022/03/09 01:12:34;;;;;;;3.60;1.88;;;;;;;2.97;53.91;102227.78;5014853;28;98593;-38
2022/03/09 01:14:59;;;;;;;3.22;2.33;;;;;;;2.94;53.91;102227.81;5014954;28;97026;-37
2022/03/09 01:17:26;;;;;;;1.60;1.23;;;;;;;2.95;53.98;102221.56;5032450;28;126582;-38
2022/03/09 01:19:51;;;;;;;3.85;2.10;;;;;;;2.94;54.82;102216.22;5015091;28;101129;-37
2022/03/09 01:22:17;;;;;;;3.22;1.92;;;;;;;2.93;54.65;102222.47;5015443;28;96634;-37
2022/03/09 01:24:42;;;;;;;3.05;2.33;;;;;;;2.91;54.98;102222.50;5032568;28;121498;-38
2022/03/09 01:27:07;;;;;;;3.42;1.90;;;;;;;2.90;55.04;102226.06;5032333;28;121705;-37
2022/03/09 01:29:33;;;;;;;5.60;2.78;;;;;;;2.84;54.82;102209.19;5033430;28;97446;-37
2022/03/09 01:31:58;;;;;;;3.78;2.20;;;;;;;2.82;54.61;102208.31;5033521;28;96558;-37
2022/03/09 01:34:23;;;;;;;2.92;2.05;;;;;;;2.80;54.99;102215.44;5033005;28;96775;-38
2022/03/09 01:36:49;;;;;;;3.38;2.53;;;;;;;2.83;55.23;102227.00;5032670;28;97452;-37
2022/03/09 01:39:14;;;;;;;2.92;1.38;;;;;;;2.76;55.08;102215.47;5032426;28;126461;-38
2022/03/09 01:41:40;;;;;;;1.95;1.75;;;;;;;2.73;55.19;102219.94;5014802;28;96647;-37
2022/03/09 01:44:24;;;;;;;1.42;1.20;;;;;;;2.76;55.92;102233.28;5032849;28;100590;-38
2022/03/09 01:46:52;;;;;;;2.63;1.85;;;;;;;2.68;55.28;102217.31;5032787;28;99995;-37
2022/03/09 01:49:19;;;;;;;3.45;2.22;;;;;;;2.68;54.84;102214.63;5014700;28;100755;-37
2022/03/09 01:51:48;;;;;;;2.85;1.92;;;;;;;2.69;55.28;102212.84;5014742;28;96644;-38
2022/03/09 01:54:14;;;;;;;2.47;1.77;;;;;;;2.72;55.07;102215.50;5014391;27;96829;-37
2022/03/09 01:56:41;;;;;;;1.75;1.38;;;;;;;2.67;54.92;102203.94;5014324;28;101454;-37
2022/03/09 01:59:09;;;;;;;3.08;2.33;;;;;;;2.61;55.07;102195.97;5014499;28;101214;-37
2022/03/09 02:01:35;;;;;;;9.35;1.67;;;;;;;2.64;55.16;102201.28;5013803;28;97051;-37
2022/03/09 02:04:03;;;;;;;1.83;1.70;;;;;;;2.63;54.83;102197.72;5014527;28;96647;-38
2022/03/09 02:06:31;;;;;;;4.50;1.77;;;;;;;2.52;54.73;102181.72;5014508;28;100788;-37
2022/03/09 02:11:41;;;;;;;1.85;1.30;;;;;;;2.59;55.27;102203.09;5033306;28;96658;-37
2022/03/09 02:14:25;;;;;;;2.92;1.85;;;;;;;2.52;55.31;102183.53;5032868;28;96769;-38
2022/03/09 02:16:50;;;;;;;3.15;1.88;;;;;;;2.49;54.93;102181.75;5014347;28;100924;-37
2022/03/09 02:19:15;;;;;;;1.75;1.50;;;;;;;2.59;55.50;102198.63;5031985;28;117000;-37
2022/03/09 02:21:42;;;;;;;3.35;2.03;;;;;;;2.59;55.29;102200.44;5031490;28;118365;-38
2022/03/09 02:24:07;;;;;;;4.60;2.35;;;;;;;2.50;55.77;102188.91;5014239;28;96916;-37
2022/03/09 02:26:33;;;;;;;4.10;1.15;;;;;;;2.46;55.53;102184.47;5032005;28;97391;-37
2022/03/09 02:28:58;;;;;;;4.05;1.92;;;;;;;2.46;55.57;102187.13;5032203;28;98850;-37
2022/03/09 02:31:23;;;;;;;3.97;2.30;;;;;;;2.47;55.08;102194.25;5031522;28;121852;-37
2022/03/09 02:33:49;;;;;;;1.42;1.27;;;;;;;2.48;55.32;102197.81;5031587;28;110025;-37
2022/03/09 02:36:14;;;;;;;3.60;1.88;;;;;;;2.43;55.75;102192.53;5031322;28;126802;-37
2022/03/09 02:38:39;;;;;;;2.72;1.98;;;;;;;2.45;56.03;102188.03;5031359;28;127746;-37
2022/03/09 02:41:04;;;;;;;4.15;2.00;;;;;;;2.47;55.92;102204.06;5032404;28;96629;-37
2022/03/09 02:43:30;;;;;;;2.72;1.92;;;;;;;2.43;55.26;102196.94;5032691;28;96818;-38
2022/03/09 02:45:55;;;;;;;3.00;2.05;;;;;;;2.42;55.86;102200.53;5032397;28;97293;-37
2022/03/09 02:48:20;;;;;;;2.15;1.52;;;;;;;2.40;55.56;102200.53;5031125;28;126556;-37
2022/03/09 02:50:45;;;;;;;4.88;2.38;;;;;;;2.36;55.92;102197.88;5030638;28;122009;-37
2022/03/09 02:53:11;;;;;;;1.90;1.70;;;;;;;2.32;55.88;102184.53;5031184;28;122556;-38
2022/03/09 02:55:36;;;;;;;2.95;1.50;;;;;;;2.31;55.09;102187.22;5032093;28;97823;-38
2022/03/09 02:58:02;;;;;;;1.92;1.67;;;;;;;2.30;55.51;102185.44;5031915;28;97824;-37
2022/03/09 03:00:27;;;;;;;4.15;2.33;;;;;;;2.38;55.92;102188.97;5013593;28;96791;-38
2022/03/09 03:02:52;;;;;;;11.18;4.00;;;;;;;2.30;55.91;102180.09;5032147;28;96693;-37
2022/03/09 03:05:18;;;;;;;2.75;1.75;;;;;;;2.37;56.04;102194.34;5013206;28;101336;-37
2022/03/09 03:07:43;;;;;;;1.75;1.40;;;;;;;2.38;56.26;102188.06;5033471;27;124372;-37
2022/03/09 03:10:09;;;;;;;2.25;1.50;;;;;;;2.33;55.81;102182.75;5034244;28;122332;-37
2022/03/09 03:12:34;;;;;;;2.75;2.05;;;;;;;2.30;55.54;102182.78;5017369;28;96847;-38
2022/03/09 03:15:00;;;;;;;2.00;1.83;;;;;;;2.32;55.64;102184.53;5034859;28;97920;-37
2022/03/09 03:17:25;;;;;;;1.67;1.52;;;;;;;2.28;55.97;102173.88;5035426;28;97891;-37
2022/03/09 03:19:50;;;;;;;3.67;2.67;;;;;;;2.29;56.02;102179.22;5035150;28;96507;-38
2022/03/09 03:22:16;;;;;;;1.98;1.45;;;;;;;2.25;56.03;102172.13;5035509;28;96779;-37
2022/03/09 03:24:41;;;;;;;5.55;2.50;;;;;;;2.26;55.76;102173.88;5034501;28;121046;-38
2022/03/09 03:27:06;;;;;;;2.83;2.40;;;;;;;2.23;55.89;102165.88;5035216;28;97257;-37
2022/03/09 03:29:31;;;;;;;1.92;1.45;;;;;;;2.22;55.81;102164.13;5034416;28;120273;-38
2022/03/09 03:31:57;;;;;;;3.67;1.50;;;;;;;2.24;55.49;102174.78;5034735;28;120088;-37
2022/03/09 03:34:22;;;;;;;3.60;2.17;;;;;;;2.28;55.40;102185.44;5033518;27;127809;-37
2022/03/09 03:36:47;;;;;;;3.45;2.03;;;;;;;2.27;56.18;102180.13;5035082;28;100415;-37
2022/03/09 03:39:14;;;;;;;2.45;1.45;;;;;;;2.24;56.32;102182.81;5033196;28;102185;-38
2022/03/09 03:41:40;;;;;;;2.92;1.98;;;;;;;2.26;56.51;102186.34;5016680;28;96844;-37
2022/03/09 03:44:06;;;;;;;4.65;1.50;;;;;;;2.23;55.89;102178.38;5016696;28;100963;-38
2022/03/09 03:46:31;;;;;;;2.40;1.40;;;;;;;2.17;55.94;102176.63;5034879;28;97950;-37
2022/03/09 03:48:56;;;;;;;3.35;2.30;;;;;;;2.16;56.01;102173.94;5034009;28;118140;-37
2022/03/09 03:51:21;;;;;;;4.68;2.15;;;;;;;2.21;55.97;102174.81;5034024;28;121999;-37
2022/03/09 03:53:47;;;;;;;3.42;2.22;;;;;;;2.17;56.76;102179.31;5033749;28;127479;-37
2022/03/09 03:56:12;;;;;;;2.35;1.50;;;;;;;2.16;56.37;102177.50;5035128;28;97990;-37
2022/03/09 03:58:37;;;;;;;1.02;0.80;;;;;;;2.19;56.42;102184.63;5034808;28;96576;-37
2022/03/09 04:01:03;;;;;;;2.20;1.85;;;;;;;2.12;56.06;102170.38;5034611;28;96619;-37
2022/03/09 04:03:28;;;;;;;2.13;1.88;;;;;;;2.15;56.29;102180.22;5033171;28;126794;-38
2022/03/09 04:05:53;;;;;;;1.73;1.25;;;;;;;2.17;55.79;102184.66;5034390;28;97408;-38
2022/03/09 04:08:18;;;;;;;2.90;1.35;;;;;;;2.17;56.49;102190.00;5029437;28;122116;-37
2022/03/09 04:10:44;;;;;;;2.05;1.50;;;;;;;2.13;56.53;102182.88;5013586;28;121109;-37
2022/03/09 04:13:09;;;;;;;2.83;1.75;;;;;;;2.11;56.24;102180.19;5013317;28;126835;-37
2022/03/09 04:15:34;;;;;;;4.60;1.90;;;;;;;2.18;56.72;102188.19;4995435;28;121351;-37
2022/03/09 04:18:00;;;;;;;5.65;2.20;;;;;;;2.07;56.50;102165.09;5014281;28;96425;-37
2022/03/09 04:20:25;;;;;;;2.97;1.40;;;;;;;2.07;56.66;102162.44;5014701;28;96771;-37
2022/03/09 04:22:51;;;;;;;4.93;2.28;;;;;;;2.11;56.32;102173.97;4996009;28;97959;-38
2022/03/09 04:25:16;;;;;;;1.90;1.73;;;;;;;2.12;56.11;102171.31;5013942;28;98963;-38
2022/03/09 04:27:41;;;;;;;2.30;1.15;;;;;;;2.06;55.88;102157.97;5013447;28;96670;-37
2022/03/09 04:30:09;;;;;;;1.58;1.27;;;;;;;2.11;56.02;102163.28;5014050;28;96803;-38
2022/03/09 04:32:34;;;;;;;2.90;1.63;;;;;;;2.04;55.69;102154.41;5013866;28;99575;-37
2022/03/09 04:35:01;;;;;;;1.73;1.27;;;;;;;2.03;56.04;102155.31;5013629;28;97851;-37
2022/03/09 04:37:30;;;;;;;2.78;2.08;;;;;;;2.12;56.24;102173.06;4995910;28;96634;-38
2022/03/09 04:39:59;;;;;;;1.33;1.23;;;;;;;2.07;56.59;102165.09;4995936;28;96893;-38
2022/03/09 04:42:28;;;;;;;2.72;1.65;;;;;;;2.11;56.26;102177.53;4995660;28;101178;-37
2022/03/09 04:44:54;;;;;;;1.42;1.20;;;;;;;1.99;55.95;102158.88;4996065;28;101475;-37
2022/03/09 04:47:20;;;;;;;1.08;1.00;;;;;;;2.01;56.51;102167.78;5013407;28;96654;-38
2022/03/09 04:49:45;;;;;;;2.65;1.63;;;;;;;2.04;56.09;102173.09;4995790;28;96619;-37
2022/03/09 04:52:11;;;;;;;2.83;1.88;;;;;;;2.04;56.86;102181.13;5013077;28;98914;-37
2022/03/09 04:54:36;;;;;;;2.15;1.08;;;;;;;2.02;56.24;102179.34;5012821;28;124411;-37
2022/03/09 04:57:01;;;;;;;2.60;1.90;;;;;;;2.00;56.47;102181.16;5012949;28;120331;-37
2022/03/09 04:59:27;;;;;;;2.10;1.23;;;;;;;2.02;56.39;102190.94;4995575;28;96896;-37
2022/03/09 05:01:52;;;;;;;1.35;1.17;;;;;;;2.01;56.39;102182.94;5013234;28;98006;-37
2022/03/09 05:04:17;;;;;;;3.30;2.50;;;;;;;1.99;56.54;102193.63;5013377;28;104906;-37
2022/03/09 05:06:43;;;;;;;2.47;1.70;;;;;;;1.96;56.14;102190.09;5013554;28;96511;-37
2022/03/09 05:09:08;;;;;;;2.58;1.35;;;;;;;1.99;56.31;102196.28;5024257;28;96761;-37
2022/03/09 05:11:33;;;;;;;1.90;1.40;;;;;;;1.99;56.46;102201.63;5015356;28;98949;-38
2022/03/09 05:13:58;;;;;;;2.40;1.48;;;;;;;1.92;56.68;102189.19;5032423;28;125244;-37
2022/03/09 05:16:24;;;;;;;1.77;1.27;;;;;;;1.96;57.01;102207.00;5032845;28;103582;-37
2022/03/09 05:18:49;;;;;;;1.70;1.35;;;;;;;1.92;56.86;102200.78;5032320;28;122791;-38
2022/03/09 05:21:15;;;;;;;3.33;1.98;;;;;;;1.90;57.16;102207.00;5033279;28;97838;-37
2022/03/09 05:23:40;;;;;;;0.73;0.73;;;;;;;1.88;57.08;102206.13;5033429;28;97339;-38
2022/03/09 05:26:05;;;;;;;5.05;2.03;;;;;;;1.86;57.61;102199.91;5032640;28;121972;-37
2022/03/09 05:28:30;;;;;;;1.73;1.20;;;;;;;1.77;56.95;102189.28;5032550;28;121777;-38
2022/03/09 05:30:56;;;;;;;3.45;2.10;;;;;;;1.79;57.16;102199.06;5032237;27;99095;-38
2022/03/09 05:33:21;;;;;;;10.73;1.52;;;;;;;1.76;57.13;102203.50;5032406;27;126891;-37
2022/03/09 05:35:46;;;;;;;2.25;1.27;;;;;;;1.76;57.88;102206.19;5033412;28;96513;-37
2022/03/09 05:38:12;;;;;;;1.77;1.00;;;;;;;1.65;58.03;102191.09;5032553;28;117232;-37
2022/03/09 05:40:37;;;;;;;4.28;1.83;;;;;;;1.68;58.46;102200.88;5032666;28;97843;-37
2022/03/09 05:43:02;;;;;;;5.78;2.30;;;;;;;1.59;57.64;102187.53;5031996;28;127597;-37
2022/03/09 05:45:27;;;;;;;1.88;0.88;;;;;;;1.55;58.33;102194.69;5032305;28;119297;-38
2022/03/09 05:47:53;;;;;;;0.95;0.77;;;;;;;1.56;58.00;102200.91;5032918;28;98386;-37
2022/03/09 05:50:18;;;;;;;2.88;1.80;;;;;;;1.45;58.48;102198.25;5032528;28;111995;-38
2022/03/09 05:52:44;;;;;;;2.53;1.50;;;;;;;1.53;58.24;102217.81;5032954;28;97777;-38
2022/03/09 05:55:09;;;;;;;2.95;2.00;;;;;;;1.51;58.12;102224.94;5033093;28;96528;-37
2022/03/09 05:57:35;;;;;;;3.80;1.20;;;;;;;1.46;58.70;102216.06;5033366;28;96739;-37
2022/03/09 06:00:02;;;;;;;2.20;1.15;;;;;;;1.42;58.65;102212.47;5033029;28;97847;-37
2022/03/09 06:02:27;;;;;;;1.67;1.48;;;;;;;1.39;58.52;102211.63;5014114;28;101233;-37
2022/03/09 06:04:53;;;;;;;4.28;1.48;;;;;;;1.42;58.97;102225.84;5013607;28;119727;-37
2022/03/09 06:07:18;;;;;;;1.52;1.33;;;;;;;1.41;59.05;102232.06;5032917;28;96957;-38
2022/03/09 06:09:44;;;;;;;6.15;1.73;;;;;;;1.36;58.78;102224.94;5016578;28;97259;-37
2022/03/09 06:12:09;;;;;;;2.95;2.13;;;;;;;1.36;58.81;102223.19;5012285;28;99322;-38
2022/03/09 06:14:34;;;;;;;3.40;2.33;;;;;;;1.31;59.29;102222.31;5012373;28;99113;-37
2022/03/09 06:16:59;;;;;;;6.20;2.15;;;;;;;1.35;58.94;102225.84;5012457;28;96743;-37
2022/03/09 06:19:25;;;;;;;8.88;1.55;;;;;;;1.33;59.06;102230.28;5011525;28;127310;-37
2022/03/09 06:21:50;;;;;;;4.68;2.88;;;;;;;1.29;59.51;102226.75;5012578;28;97687;-37
2022/03/09 06:24:18;;;;;;;3.40;2.22;;;;;;;1.31;59.19;102227.66;4993361;28;122047;-37
2022/03/09 06:26:43;;;;;;;3.50;2.60;;;;;;;1.29;59.88;102221.41;5012260;28;96712;-37
2022/03/09 06:29:10;;;;;;;1.98;1.83;;;;;;;1.21;59.42;102209.84;4993746;28;100916;-38
2022/03/09 06:31:35;;;;;;;2.53;1.98;;;;;;;1.26;59.20;102224.06;5011984;28;97159;-38
2022/03/09 06:34:01;;;;;;;2.45;1.92;;;;;;;1.25;59.70;102228.53;5012387;28;96737;-37
2022/03/09 06:36:26;;;;;;;3.10;1.55;;;;;;;1.22;59.69;102224.97;5012289;28;96546;-37
2022/03/09 06:38:52;;;;;;;3.58;2.00;;;;;;;1.24;59.23;102226.75;5011899;28;111450;-37
2022/03/09 06:41:18;;;;;;;1.30;1.15;;;;;;;1.24;58.74;102220.50;5011615;28;105263;-37
2022/03/09 06:43:43;;;;;;;1.33;1.23;;;;;;;1.25;58.56;102222.31;5012256;28;96644;-37
2022/03/09 06:46:08;;;;;;;2.88;2.10;;;;;;;1.32;58.54;102233.88;4994202;28;96808;-37
2022/03/09 06:48:34;;;;;;;1.58;1.25;;;;;;;1.35;59.46;102233.84;5011723;28;97818;-37
2022/03/09 06:50:59;;;;;;;3.13;2.22;;;;;;;1.38;58.29;102234.75;5011037;28;125844;-37
2022/03/09 06:53:25;;;;;;;2.63;2.03;;;;;;;1.42;58.54;102246.31;5010343;28;96608;-37
2022/03/09 06:55:50;;;;;;;3.50;2.03;;;;;;;1.37;58.68;102237.41;5012367;28;96779;-37
2022/03/09 06:58:16;;;;;;;3.33;2.13;;;;;;;1.44;58.42;102247.19;5011751;28;98270;-37
2022/03/09 07:00:42;;;;;;;2.95;1.42;;;;;;;1.38;58.37;102240.09;5011364;28;97786;-37
2022/03/09 07:03:07;;;;;;;1.55;0.95;;;;;;;1.51;57.97;102248.09;4994044;28;96605;-37
2022/03/09 07:05:33;;;;;;;2.30;1.88;;;;;;;1.53;58.29;102239.19;5012201;28;96871;-37
2022/03/09 07:07:59;;;;;;;2.17;1.52;;;;;;;1.59;58.38;102232.94;5012199;28;97971;-37
2022/03/09 07:10:24;;;;;;;2.60;0.85;;;;;;;1.58;58.59;102232.03;4997340;28;101004;-38
2022/03/09 07:12:49;;;;;;;2.63;1.58;;;;;;;1.68;58.32;102240.94;5031914;28;96525;-37
2022/03/09 07:15:16;;;;;;;0.93;0.75;;;;;;;1.73;58.28;102240.91;5032082;28;96446;-37
2022/03/09 07:17:42;;;;;;;2.17;1.25;;;;;;;1.80;57.73;102246.22;5013042;28;100864;-37
2022/03/09 07:20:08;;;;;;;2.03;1.20;;;;;;;1.89;57.28;102253.34;5031909;28;97311;-38
2022/03/09 07:22:34;;;;;;;2.95;1.92;;;;;;;1.96;57.12;102251.56;5031644;28;96532;-38
2022/03/09 07:24:59;;;;;;;1.48;1.25;;;;;;;2.04;57.22;102250.59;5031938;28;96762;-37
2022/03/09 07:27:24;;;;;;;1.48;1.15;;;;;;;2.12;56.78;102261.25;5031434;28;101408;-37
2022/03/09 07:29:50;;;;;;;2.50;1.77;;;;;;;2.30;57.74;102268.34;5031502;28;97850;-38
2022/03/09 07:32:15;;;;;;;1.58;1.02;;;;;;;2.38;56.42;102273.63;5031510;28;96446;-37
2022/03/09 07:34:41;;;;;;;2.22;1.40;;;;;;;2.45;56.63;102260.22;5013597;28;96844;-37
2022/03/09 07:37:07;;;;;;;1.30;1.00;;;;;;;2.66;55.98;102274.38;5031566;28;97870;-37
2022/03/09 07:39:32;;;;;;;2.42;1.63;;;;;;;2.77;56.06;102269.88;5013316;28;101100;-37
2022/03/09 07:41:58;;;;;;;2.20;1.15;;;;;;;2.81;55.93;102255.56;5031062;28;96542;-37
2022/03/09 07:44:24;;;;;;;1.75;1.00;;;;;;;2.98;56.05;102269.72;5031606;28;96896;-37
2022/03/09 07:46:50;;;;;;;2.22;1.08;;;;;;;3.14;55.72;102277.63;5013129;28;100876;-37
2022/03/09 07:49:17;;;;;;;3.00;2.00;;;;;;;3.23;55.02;102265.97;5012963;28;100887;-37
2022/03/09 07:51:43;;;;;;;1.50;1.20;;;;;;;3.35;55.18;102271.22;5013143;28;96541;-37
2022/03/09 07:54:08;;;;;;;1.95;1.60;;;;;;;3.38;54.57;102255.13;5034150;28;96754;-37
2022/03/09 07:56:35;;;;;;;2.78;2.15;;;;;;;3.56;54.51;102272.81;5033970;28;126819;-37
2022/03/09 07:59:01;;;;;;;1.75;1.40;;;;;;;3.64;54.90;102259.34;5016760;28;99453;-37
2022/03/09 08:01:27;;;;;;;2.47;1.73;;;;;;;3.78;54.68;102268.13;5034417;28;97042;-37
2022/03/09 08:03:54;;;;;;;3.30;1.13;;;;;;;3.73;54.30;102252.09;5034622;28;96800;-37
2022/03/09 08:06:21;;;;;;;2.83;1.88;;;;;;;3.92;54.21;102266.19;5032739;28;97402;-37
2022/03/09 08:08:47;;;;;;;2.58;1.48;;;;;;;4.05;54.01;102274.97;5015985;28;99086;-37
2022/03/09 08:11:13;;;;;;;2.10;1.23;;;;;;;4.16;53.89;102281.09;5034679;28;96685;-37
2022/03/09 08:13:38;;;;;;;2.05;1.10;;;;;;;4.23;53.90;102273.88;5016006;28;96850;-37
2022/03/09 08:16:03;;;;;;;2.88;1.77;;;;;;;4.29;54.34;102262.16;5033177;28;125455;-37
2022/03/09 08:18:29;;;;;;;3.45;2.10;;;;;;;4.42;53.67;102270.03;5034812;28;97431;-38
2022/03/09 08:20:54;;;;;;;4.88;2.65;;;;;;;4.53;53.74;102280.66;5033942;28;113647;-37
2022/03/09 08:23:19;;;;;;;2.63;1.33;;;;;;;4.57;53.50;102266.25;5034690;28;96832;-37
2022/03/09 08:25:45;;;;;;;5.78;2.45;;;;;;;4.68;53.73;102277.75;5034399;28;98286;-37
2022/03/09 08:28:10;;;;;;;1.63;1.20;;;;;;;4.66;53.59;102266.13;5034045;28;97533;-37
2022/03/09 08:30:37;;;;;;;8.40;2.03;;;;;;;4.78;53.31;102277.63;5033025;28;120700;-37
2022/03/09 08:33:02;;;;;;;1.55;1.15;;;;;;;4.79;53.47;102272.25;5034239;28;96739;-37
2022/03/09 08:35:27;;;;;;;4.45;1.55;;;;;;;4.88;53.25;102279.25;5033944;27;97573;-37
2022/03/09 08:37:52;;;;;;;4.70;2.30;;;;;;;4.84;53.03;102262.31;5033172;28;126559;-37
2022/03/09 08:40:18;;;;;;;5.15;1.88;;;;;;;5.00;52.47;102276.38;5015697;28;104700;-37
2022/03/09 08:42:43;;;;;;;2.80;1.73;;;;;;;5.00;52.05;102268.31;5034070;28;96744;-37
2022/03/09 08:45:09;;;;;;;8.07;3.15;;;;;;;5.06;52.39;102278.97;5033219;28;113429;-37
2022/03/09 08:47:34;;;;;;;5.07;2.53;;;;;;;5.08;52.02;102273.59;5034530;28;97258;-37
2022/03/09 08:49:59;;;;;;;3.22;1.75;;;;;;;5.13;52.41;102277.09;5015559;28;96736;-37
2022/03/09 08:52:25;;;;;;;4.55;2.40;;;;;;;5.21;52.43;102282.34;5033807;28;96781;-37
2022/03/09 08:54:56;;;;;;;5.00;2.40;;;;;;;5.16;52.17;102263.59;5033003;28;110987;-38
2022/03/09 08:57:21;;;;;;;3.83;2.20;;;;;;;5.30;51.79;102280.38;5033898;28;96761;-37
2022/03/09 08:59:47;;;;;;;3.90;2.17;;;;;;;5.31;51.61;102279.50;5033546;28;96601;-37
2022/03/09 09:02:12;;;;;;;3.75;1.98;;;;;;;5.41;51.19;102277.53;5033329;28;96784;-37
2022/03/09 09:04:38;;;;;;;9.98;2.20;;;;;;;5.40;51.49;102261.41;5032147;27;99272;-37
2022/03/09 09:07:03;;;;;;;4.03;2.33;;;;;;;5.47;51.23;102260.41;5033704;28;97389;-37
2022/03/09 09:09:29;;;;;;;3.95;2.47;;;;;;;5.56;51.21;102262.94;5019696;28;96877;-37
2022/03/09 09:11:54;;;;;;;4.50;2.28;;;;;;;5.65;50.87;102264.53;5013604;28;96505;-37
2022/03/09 09:14:20;;;;;;;4.32;2.03;;;;;;;5.63;51.03;102245.78;5013127;28;99183;-37
2022/03/09 09:16:47;;;;;;;2.53;1.33;;;;;;;5.75;51.49;102261.66;4995127;28;101151;-38
2022/03/09 09:19:12;;;;;;;5.53;2.33;;;;;;;5.85;51.20;102275.81;5012759;28;96473;-38
2022/03/09 09:21:38;;;;;;;5.70;2.53;;;;;;;5.96;51.39;102267.59;5013142;28;96969;-37
2022/03/09 09:24:04;;;;;;;8.25;3.65;;;;;;;6.08;49.61;102261.97;5012979;28;99896;-37
2022/03/09 09:26:29;;;;;;;9.65;3.22;;;;;;;6.25;49.65;102277.78;4994751;28;100935;-37
2022/03/09 09:28:55;;;;;;;8.77;4.03;;;;;;;6.33;49.13;102267.72;5012499;28;113573;-37
2022/03/09 09:31:20;;;;;;;4.28;2.78;;;;;;;6.48;49.92;102265.63;5013175;28;96746;-37
2022/03/09 09:33:45;;;;;;;6.57;3.55;;;;;;;6.64;49.40;102261.69;5012964;28;97842;-37
2022/03/09 09:36:11;;;;;;;9.23;3.90;;;;;;;6.78;49.48;102259.56;5012240;28;126390;-37
2022/03/09 09:38:36;;;;;;;7.13;3.70;;;;;;;7.00;48.16;102269.81;5012375;28;118504;-37
2022/03/09 09:41:02;;;;;;;2.75;2.17;;;;;;;7.19;47.92;102267.56;4978429;28;96813;-37
2022/03/09 09:43:27;;;;;;;7.65;3.63;;;;;;;7.33;48.00;102265.41;5012138;28;97822;-37
2022/03/09 09:45:53;;;;;;;5.68;2.78;;;;;;;7.59;46.67;102266.56;5011931;28;123142;-37
2022/03/09 09:48:19;;;;;;;3.97;2.22;;;;;;;7.77;46.38;102267.88;5013045;28;96517;-37
2022/03/09 09:50:45;;;;;;;8.25;4.05;;;;;;;8.04;46.91;102263.56;5012650;28;97541;-37
2022/03/09 09:53:13;;;;;;;7.63;3.65;;;;;;;8.32;46.01;102251.94;5012826;28;97405;-37
2022/03/09 09:55:39;;;;;;;5.78;3.35;;;;;;;8.47;46.24;102252.41;4994171;28;100880;-37
2022/03/09 09:58:05;;;;;;;6.95;3.63;;;;;;;8.78;46.77;102250.59;4994693;28;96567;-37
2022/03/09 10:00:31;;;;;;;13.45;5.03;;;;;;;9.15;44.92;102258.38;5012755;28;97588;-37
2022/03/09 10:02:57;;;;;;;8.07;3.25;;;;;;;9.34;44.20;102254.16;4994274;28;101151;-37
2022/03/09 10:05:22;;;;;;;6.13;3.15;;;;;;;9.56;44.12;102250.72;5012630;28;97730;-37
2022/03/09 10:08:03;;;;;;;6.63;3.40;;;;;;;9.72;44.57;102253.75;5012203;28;96544;-37
2022/03/09 10:10:29;;;;;;;6.72;3.17;;;;;;;9.86;44.08;102250.56;4994655;28;96734;-37
2022/03/09 10:13:16;;;;;;;6.18;3.33;;;;;;;10.20;43.11;102242.06;5012488;28;97312;-37
2022/03/09 10:15:43;;;;;;;5.95;3.30;;;;;;;10.48;42.71;102254.59;5011870;28;98799;-37
2022/03/09 10:18:19;;;;;;;8.85;3.97;;;;;;;10.77;41.51;102253.44;4994717;28;96642;-37
2022/03/09 10:20:46;;;;;;;7.45;4.10;;;;;;;10.95;42.36;102260.84;5012175;28;96655;-37
2022/03/09 10:23:12;;;;;;;13.80;5.38;;;;;;;11.23;42.32;102251.59;4994020;28;101372;-37
2022/03/09 10:25:38;;;;;;;7.68;3.00;;;;;;;11.38;40.47;102253.66;5012505;28;97908;-37
2022/03/09 10:28:09;;;;;;;7.93;3.97;;;;;;;11.38;41.99;102241.91;5012437;28;96676;-37
2022/03/09 10:30:39;;;;;;;8.25;3.88;;;;;;;11.47;39.38;102264.13;4994155;28;96851;-37
2022/03/09 10:33:09;;;;;;;8.95;3.58;;;;;;;11.65;41.08;102248.84;4993583;28;100972;-37
2022/03/09 10:35:45;;;;;;;12.23;4.45;;;;;;;11.93;41.76;102254.94;5012326;28;97904;-37
2022/03/09 10:38:16;;;;;;;9.93;4.50;;;;;;;12.17;39.51;102267.41;4977560;28;96720;-37
2022/03/09 10:40:44;;;;;;;10.75;4.30;;;;;;;12.36;40.44;102270.16;5012067;28;97234;-36
2022/03/09 10:43:14;;;;;;;9.25;4.00;;;;;;;12.43;38.69;102257.19;4993643;28;101199;-37
2022/03/09 10:46:07;;;;;;;8.57;4.63;;;;;;;12.74;38.47;102262.91;4993882;28;100857;-37
2022/03/09 10:49:00;;;;;;;11.32;4.05;;;;;;;12.87;39.50;102255.06;5012099;28;96812;-37
2022/03/09 10:51:34;;;;;;;8.20;3.30;;;;;;;12.97;39.29;102260.94;5012658;28;96655;-37
2022/03/09 10:54:06;;;;;;;8.52;4.22;;;;;;;13.05;39.04;102263.28;5011661;28;99443;-37
2022/03/09 10:56:33;;;;;;;8.43;4.35;;;;;;;13.20;39.87;102264.34;4977333;28;100817;-37
2022/03/09 10:59:11;;;;;;;6.82;3.45;;;;;;;13.27;38.55;102263.09;4993188;28;97754;-37
2022/03/09 11:01:37;;;;;;;8.57;3.95;;;;;;;13.31;39.16;102254.72;4993704;28;97023;-37
2022/03/09 11:04:12;;;;;;;7.13;3.80;;;;;;;13.49;36.64;102271.06;5011479;28;99298;-37
2022/03/09 11:06:42;;;;;;;9.18;4.28;;;;;;;13.60;37.71;102269.56;4993260;28;100832;-37
2022/03/09 11:09:16;;;;;;;10.73;4.47;;;;;;;13.59;36.78;102254.19;5000547;28;96802;-37
2022/03/09 11:11:45;;;;;;;9.65;4.25;;;;;;;13.61;36.74;102237.78;5010481;28;96949;-37
2022/03/09 11:14:13;;;;;;;10.32;4.60;;;;;;;13.75;36.71;102253.38;5010121;28;101177;-37
2022/03/09 11:16:39;;;;;;;11.52;4.90;;;;;;;13.83;37.79;102243.00;5010539;28;100726;-37
2022/03/09 11:19:04;;;;;;;10.80;4.78;;;;;;;13.96;37.76;102245.94;5011695;28;96716;-37
2022/03/09 11:21:30;;;;;;;10.90;5.15;;;;;;;14.02;35.86;102235.59;5011733;28;96773;-37
2022/03/09 11:23:56;;;;;;;12.80;5.50;;;;;;;14.10;35.78;102243.34;5010822;28;99344;-37
2022/03/09 11:26:28;;;;;;;11.68;5.00;;;;;;;14.27;36.37;102234.25;5009979;28;100923;-37
2022/03/09 11:29:05;;;;;;;10.75;4.40;;;;;;;14.23;36.67;102229.94;5013839;28;96598;-37